Terminal Aerodrome Forecast
Issued by NWS

Home | Current Version | Previous Version | Text Only | Print | Product List | Glossary On
Versions: 1 2 3 4 5 6 7 8 9 10 11 12 13 14 15 16 17 18 19 20 21 22 23 24 25 26 27 28 29 30 31 32 33 34 35 36 37 38
379
FTUS41 KBTV 301724
TAFPBG
TAF
KPBG 301724Z 3018/3118 02008KT P6SM FEW200
     FM302300 02006KT P6SM BKN200
     FM310900 VRB03KT P6SM VCSH OVC100
     FM311600 12008KT 2SM -RASN BR OVC040=

USA.gov is the U.S. government's official web portal to all federal, state and local government web resources and services.